createdAt,value
2022-11-16T00:00:05.827Z,77.77
2022-11-16T00:02:33.099Z,79.92
2022-11-16T00:04:59.689Z,80.00
2022-11-16T00:07:26.324Z,77.98
2022-11-16T00:09:52.978Z,77.19
2022-11-16T00:12:19.506Z,76.37
2022-11-16T00:14:46.143Z,77.53
2022-11-16T00:17:12.743Z,76.55
2022-11-16T00:19:39.541Z,74.10
2022-11-16T00:22:06.099Z,70.61
2022-11-16T00:24:32.591Z,72.27
2022-11-16T00:26:59.747Z,74.00
2022-11-16T00:29:26.254Z,72.93
2022-11-16T00:31:52.866Z,72.54
2022-11-16T00:34:19.448Z,72.11
2022-11-16T00:36:46.496Z,72.24
2022-11-16T00:39:13.112Z,71.22
2022-11-16T00:41:39.663Z,69.87
2022-11-16T00:44:06.246Z,68.67
2022-11-16T00:46:33.633Z,67.82
2022-11-16T00:49:00.102Z,64.83
2022-11-16T00:51:26.605Z,63.52
2022-11-16T00:56:34.528Z,63.23
2022-11-16T00:59:00.961Z,62.38
2022-11-16T01:01:28.589Z,61.47
2022-11-16T01:03:55.141Z,63.09
2022-11-16T01:06:21.796Z,64.96
2022-11-16T01:08:48.236Z,66.82
2022-11-16T01:11:15.043Z,69.58
2022-11-16T01:13:41.599Z,70.33
2022-11-16T01:16:08.010Z,70.62
2022-11-16T01:18:34.916Z,72.52
2022-11-16T01:21:02.736Z,70.47
2022-11-16T01:23:29.436Z,68.56
2022-11-16T01:25:57.894Z,67.71
2022-11-16T01:28:24.478Z,66.48
2022-11-16T01:30:51.104Z,63.57
2022-11-16T01:33:17.592Z,62.61
2022-11-16T01:35:44.071Z,63.83
2022-11-16T01:38:10.626Z,63.27
2022-11-16T01:40:37.083Z,63.04
2022-11-16T01:43:04.327Z,65.59
2022-11-16T01:45:31.134Z,65.55
2022-11-16T01:47:58.192Z,62.58
2022-11-16T01:50:24.754Z,62.00
2022-11-16T01:52:51.196Z,63.10
2022-11-16T01:55:17.881Z,66.89
2022-11-16T01:57:44.499Z,71.87
2022-11-16T02:00:11.037Z,73.50
2022-11-16T02:02:37.657Z,69.88
2022-11-16T02:05:06.519Z,67.98
2022-11-16T02:07:33.091Z,66.95
2022-11-16T02:09:59.614Z,67.83
2022-11-16T02:12:26.174Z,68.17
2022-11-16T02:14:53.104Z,72.04
2022-11-16T02:17:19.709Z,73.22
2022-11-16T02:19:46.270Z,73.87
2022-11-16T02:22:13.060Z,72.89
2022-11-16T02:24:39.556Z,72.50
2022-11-16T02:27:06.133Z,73.36
2022-11-16T02:29:32.645Z,75.29
2022-11-16T02:31:59.130Z,75.45
2022-11-16T02:34:25.779Z,74.09
2022-11-16T02:36:52.240Z,72.71
2022-11-16T02:39:18.832Z,70.11
2022-11-16T02:41:45.374Z,69.53
2022-11-16T02:44:12.202Z,68.92
2022-11-16T02:46:39.021Z,68.94
2022-11-16T02:49:05.545Z,70.37
2022-11-16T02:51:32.245Z,66.94
2022-11-16T02:53:58.787Z,65.02
2022-11-16T02:56:25.386Z,66.20
2022-11-16T02:58:52.680Z,67.89
2022-11-16T03:01:19.287Z,66.69
2022-11-16T03:03:45.903Z,67.53
2022-11-16T03:06:12.691Z,67.29
2022-11-16T03:08:39.216Z,65.98
2022-11-16T03:11:06.107Z,65.72
2022-11-16T03:13:32.675Z,66.64
2022-11-16T03:15:59.149Z,64.80
2022-11-16T03:18:26.581Z,63.35
2022-11-16T03:20:53.095Z,62.56
2022-11-16T03:23:19.603Z,63.01
2022-11-16T03:25:46.019Z,65.30
2022-11-16T03:28:12.668Z,64.55
2022-11-16T03:30:39.182Z,67.44
2022-11-16T03:33:05.624Z,66.26
2022-11-16T03:35:32.891Z,63.81
2022-11-16T03:37:59.437Z,63.20
2022-11-16T03:40:26.037Z,62.48
2022-11-16T03:42:52.700Z,62.68
2022-11-16T03:45:19.275Z,64.30
2022-11-16T03:47:45.834Z,63.63
2022-11-16T03:50:12.372Z,64.20
2022-11-16T03:52:38.883Z,64.86
2022-11-16T03:55:06.103Z,64.34
2022-11-16T03:57:32.656Z,62.27
2022-11-16T03:59:59.155Z,62.65
2022-11-16T04:02:25.607Z,61.59
2022-11-16T04:04:52.144Z,60.28
2022-11-16T04:07:18.845Z,59.58
2022-11-16T04:09:46.677Z,58.80
2022-11-16T04:12:13.174Z,59.98
2022-11-16T04:14:49.394Z,59.80
2022-11-16T04:17:16.183Z,59.62
2022-11-16T04:19:42.726Z,58.96
2022-11-16T04:22:09.276Z,58.66
2022-11-16T04:24:35.879Z,58.49
2022-11-16T04:27:02.390Z,58.32
2022-11-16T04:29:28.927Z,58.89
2022-11-16T04:31:55.504Z,59.22
2022-11-16T04:34:22.112Z,59.29
2022-11-16T04:36:48.575Z,59.25
2022-11-16T04:39:15.070Z,59.87
2022-11-16T04:41:42.474Z,59.08
2022-11-16T04:44:12.149Z,59.06
2022-11-16T04:46:39.733Z,59.31
2022-11-16T04:49:06.251Z,59.29
2022-11-16T04:51:33.567Z,59.82
2022-11-16T04:54:00.026Z,60.11
2022-11-16T04:56:27.494Z,61.54
2022-11-16T04:58:56.487Z,63.90
2022-11-16T05:01:23.219Z,63.97
2022-11-16T05:03:49.879Z,63.57
2022-11-16T05:06:16.333Z,64.30
2022-11-16T05:08:42.927Z,63.19
2022-11-16T05:11:09.509Z,62.83
2022-11-16T05:13:37.274Z,62.43
2022-11-16T05:16:04.662Z,62.34
2022-11-16T05:18:32.362Z,63.92
2022-11-16T05:20:59.145Z,63.61
2022-11-16T05:23:26.023Z,64.05
2022-11-16T05:25:54.039Z,65.48
2022-11-16T05:28:20.597Z,64.54
2022-11-16T05:30:47.123Z,64.15
2022-11-16T05:33:15.259Z,62.70
2022-11-16T05:35:42.085Z,62.37
2022-11-16T05:38:08.994Z,61.11
2022-11-16T05:40:35.612Z,60.99
2022-11-16T05:43:02.215Z,62.11
2022-11-16T05:45:29.733Z,62.34
2022-11-16T05:47:56.707Z,61.58
2022-11-16T05:50:23.282Z,61.79
2022-11-16T05:52:50.145Z,60.42
2022-11-16T05:55:16.656Z,61.04
2022-11-16T05:57:46.075Z,61.13
2022-11-16T06:00:13.689Z,61.71
2022-11-16T06:02:40.628Z,61.32
2022-11-16T06:07:49.895Z,60.47
2022-11-16T06:10:16.388Z,62.33
2022-11-16T06:12:43.239Z,63.85
2022-11-16T06:15:10.543Z,63.89
2022-11-16T06:17:41.650Z,62.50
2022-11-16T06:20:10.746Z,61.24
2022-11-16T06:22:39.694Z,61.45
2022-11-16T06:25:10.372Z,60.94
2022-11-16T06:27:38.056Z,60.32
2022-11-16T06:30:04.649Z,59.65
2022-11-16T06:32:32.396Z,60.44
2022-11-16T06:35:00.354Z,60.73
2022-11-16T06:37:29.672Z,61.70
2022-11-16T06:39:58.092Z,62.14
2022-11-16T06:42:25.815Z,62.17
2022-11-16T06:44:56.993Z,63.00
2022-11-16T06:47:25.369Z,62.55
2022-11-16T06:49:52.867Z,61.80
2022-11-16T06:52:20.215Z,63.64
2022-11-16T06:54:48.638Z,63.95
2022-11-16T06:57:16.651Z,60.81
2022-11-16T06:59:44.585Z,61.97
2022-11-16T07:02:14.392Z,59.81
2022-11-16T07:04:42.256Z,58.71
2022-11-16T07:07:09.492Z,58.75
2022-11-16T07:09:46.552Z,58.32
2022-11-16T07:12:16.724Z,58.37
2022-11-16T07:14:46.272Z,58.46
2022-11-16T07:17:13.132Z,57.54
2022-11-16T07:19:45.012Z,57.86
2022-11-16T07:22:12.747Z,56.98
2022-11-16T07:24:41.561Z,57.37
2022-11-16T07:27:08.355Z,57.08
2022-11-16T07:29:35.467Z,56.73
2022-11-16T07:32:02.239Z,58.38
2022-11-16T07:34:29.539Z,56.61
2022-11-16T07:37:03.829Z,55.94
2022-11-16T07:39:33.234Z,55.29
2022-11-16T07:42:02.335Z,55.87
2022-11-16T07:44:30.319Z,57.22
2022-11-16T07:46:58.100Z,57.05
2022-11-16T07:49:28.632Z,57.32
2022-11-16T07:51:56.594Z,58.19
2022-11-16T07:54:27.220Z,59.49
2022-11-16T07:56:54.382Z,58.78
2022-11-16T07:59:22.276Z,61.02
2022-11-16T08:01:50.080Z,60.22
2022-11-16T08:04:17.392Z,58.38
2022-11-16T08:06:49.144Z,60.63
2022-11-16T08:09:16.033Z,59.93
2022-11-16T08:11:45.064Z,57.41
2022-11-16T08:14:12.620Z,56.73
2022-11-16T08:19:20.878Z,54.23
2022-11-16T08:21:48.163Z,53.17
2022-11-16T08:24:15.691Z,53.41
2022-11-16T08:26:48.444Z,52.92
2022-11-16T08:29:21.261Z,52.36
2022-11-16T08:31:49.030Z,55.18
2022-11-16T08:34:16.783Z,56.31
2022-11-16T08:36:44.840Z,55.86
2022-11-16T08:39:12.504Z,57.04
2022-11-16T08:41:40.446Z,56.74
2022-11-16T08:44:08.788Z,56.66
2022-11-16T08:46:37.119Z,56.98
2022-11-16T08:49:06.790Z,55.63
2022-11-16T08:51:34.174Z,55.10
2022-11-16T08:54:01.479Z,55.91
2022-11-16T08:56:30.240Z,55.83
2022-11-16T08:58:59.167Z,55.67
2022-11-16T09:01:27.063Z,55.37
2022-11-16T09:03:54.273Z,56.37
2022-11-16T09:06:22.452Z,55.26
2022-11-16T09:08:54.953Z,54.87
2022-11-16T09:11:23.260Z,53.79
2022-11-16T09:13:51.999Z,53.49
2022-11-16T09:19:04.697Z,52.79
2022-11-16T09:21:31.680Z,52.41
2022-11-16T09:24:00.051Z,53.19
2022-11-16T09:26:27.027Z,54.06
2022-11-16T09:28:54.612Z,54.15
2022-11-16T09:31:23.559Z,55.15
2022-11-16T09:33:51.864Z,52.89
2022-11-16T09:36:18.610Z,52.57
2022-11-16T09:39:17.814Z,51.82
2022-11-16T09:41:34.846Z,53.39
2022-11-16T09:44:02.297Z,53.06
2022-11-16T09:46:29.939Z,53.40
2022-11-16T09:48:57.825Z,55.54
2022-11-16T09:51:25.746Z,56.45
2022-11-16T09:53:55.366Z,54.41
2022-11-16T09:56:23.160Z,53.96
2022-11-16T09:58:51.691Z,55.92
2022-11-16T10:01:19.968Z,53.47
2022-11-16T10:03:48.076Z,52.08
2022-11-16T10:06:18.251Z,52.44
2022-11-16T10:08:46.762Z,51.10
2022-11-16T10:11:14.221Z,52.57
2022-11-16T10:13:41.131Z,50.59
2022-11-16T10:16:08.852Z,49.57
2022-11-16T10:18:36.063Z,51.76
2022-11-16T10:21:02.934Z,50.43
2022-11-16T10:23:33.683Z,51.63
2022-11-16T10:26:02.627Z,51.86
2022-11-16T10:28:31.302Z,51.08
2022-11-16T10:31:00.748Z,50.55
2022-11-16T10:33:28.197Z,52.39
2022-11-16T10:35:55.126Z,53.25
2022-11-16T10:38:24.039Z,53.50
2022-11-16T10:40:51.257Z,52.71
2022-11-16T10:43:26.290Z,52.20
2022-11-16T10:45:55.198Z,52.01
2022-11-16T10:48:25.488Z,51.44
2022-11-16T10:50:53.317Z,50.61
2022-11-16T10:53:21.462Z,52.00
2022-11-16T10:55:53.150Z,50.61
2022-11-16T10:58:19.833Z,50.80
2022-11-16T11:00:48.203Z,52.36
2022-11-16T11:03:26.015Z,53.93
2022-11-16T11:05:54.541Z,52.98
2022-11-16T11:08:22.034Z,52.14
2022-11-16T11:10:49.292Z,51.71
2022-11-16T11:15:57.491Z,53.30
2022-11-16T11:18:26.017Z,53.71
2022-11-16T11:20:53.098Z,53.71
2022-11-16T11:23:23.697Z,54.22
2022-11-16T11:25:57.389Z,55.35
2022-11-16T11:28:25.856Z,55.95
2022-11-16T11:30:53.176Z,55.62
2022-11-16T11:33:23.815Z,56.28
2022-11-16T11:35:51.570Z,55.89
2022-11-16T11:38:22.888Z,55.99
2022-11-16T11:40:54.218Z,55.17
2022-11-16T11:46:23.467Z,53.67
2022-11-16T11:48:57.983Z,52.56
2022-11-16T11:53:55.729Z,53.34
2022-11-16T12:38:02.418Z,48.97
2022-11-16T12:43:40.690Z,47.89
2022-11-16T12:46:21.842Z,49.14
2022-11-16T12:55:24.154Z,48.04
2022-11-16T12:57:44.014Z,48.84
2022-11-16T13:00:19.059Z,48.46
2022-11-16T13:05:45.936Z,48.70
2022-11-16T13:08:18.561Z,48.54
2022-11-16T13:10:49.388Z,49.04
2022-11-16T13:13:48.113Z,48.27
2022-11-16T13:16:04.389Z,48.49
2022-11-16T13:18:32.088Z,47.81
2022-11-16T13:21:07.439Z,47.83
2022-11-16T13:23:34.999Z,47.95
2022-11-16T13:26:02.624Z,48.83
2022-11-16T13:28:37.176Z,47.83
2022-11-16T13:31:04.060Z,47.31
2022-11-16T13:33:31.008Z,47.93
2022-11-16T13:35:58.637Z,47.45
2022-11-16T13:38:26.337Z,46.73
2022-11-16T13:40:56.831Z,46.90
2022-11-16T13:43:23.712Z,46.54
2022-11-16T13:46:00.628Z,49.02
2022-11-16T13:48:36.796Z,50.78
2022-11-16T13:51:06.557Z,51.98
2022-11-16T13:56:24.111Z,50.41
2022-11-16T14:02:04.602Z,50.91
2022-11-16T14:04:33.392Z,50.38
2022-11-16T14:07:03.790Z,49.16
2022-11-16T14:09:34.470Z,47.59
2022-11-16T14:12:05.337Z,48.02
2022-11-16T14:17:15.001Z,47.55
2022-11-16T14:19:42.780Z,47.27
2022-11-16T14:22:15.492Z,47.17
2022-11-16T14:24:44.218Z,45.93
2022-11-16T14:27:16.405Z,44.83
2022-11-16T14:35:08.615Z,45.72
2022-11-16T14:37:36.668Z,46.38
2022-11-16T14:45:43.020Z,45.39
2022-11-16T14:48:16.801Z,46.26
2022-11-16T14:50:50.119Z,46.01
2022-11-16T14:53:18.872Z,46.24
2022-11-16T14:55:47.636Z,47.66
2022-11-16T14:58:15.506Z,48.90
2022-11-16T15:00:45.441Z,48.72
2022-11-16T15:03:16.397Z,47.24
2022-11-16T15:09:02.001Z,47.03
2022-11-16T15:11:32.956Z,47.43
2022-11-16T15:31:31.178Z,47.39
2022-11-16T15:36:51.668Z,48.31
2022-11-16T15:42:08.701Z,51.26
2022-11-16T15:44:36.460Z,50.74
2022-11-16T15:47:11.705Z,51.66
2022-11-16T15:49:43.220Z,51.42
2022-11-16T15:52:17.297Z,52.05
2022-11-16T16:01:16.129Z,54.79
2022-11-16T16:03:43.252Z,56.62
2022-11-16T16:06:11.447Z,56.78
2022-11-16T16:08:49.344Z,55.04
2022-11-16T16:11:26.480Z,55.34
2022-11-16T16:13:54.778Z,55.52
2022-11-16T16:19:10.476Z,55.13
2022-11-16T16:21:39.859Z,54.40
2022-11-16T16:24:10.906Z,55.44
2022-11-16T16:26:44.716Z,56.54
2022-11-16T16:29:12.581Z,54.81
2022-11-16T16:31:52.157Z,53.36
2022-11-16T16:34:22.694Z,53.29
2022-11-16T16:37:01.176Z,52.46
2022-11-16T16:39:28.825Z,52.37
2022-11-16T16:41:55.853Z,52.05
2022-11-16T16:44:23.002Z,52.58
2022-11-16T16:46:50.930Z,52.64
2022-11-16T16:49:18.060Z,52.51
2022-11-16T16:51:52.906Z,51.92
2022-11-16T16:54:20.107Z,53.04
2022-11-16T16:56:47.804Z,54.21
2022-11-16T16:59:23.039Z,54.17
2022-11-16T17:01:54.478Z,52.13
2022-11-16T17:04:22.070Z,51.45
2022-11-16T17:06:56.085Z,52.12
2022-11-16T17:12:36.848Z,55.10
2022-11-16T17:15:04.035Z,54.08
2022-11-16T17:17:33.285Z,54.25
2022-11-16T17:20:04.368Z,54.59
2022-11-16T17:22:32.615Z,55.22
2022-11-16T17:27:42.684Z,56.57
2022-11-16T17:30:12.726Z,56.89
2022-11-16T17:32:40.143Z,57.01
2022-11-16T17:35:10.015Z,57.50
2022-11-16T17:37:40.260Z,56.16
2022-11-16T17:40:10.196Z,55.07
2022-11-16T17:42:39.099Z,56.44
2022-11-16T17:45:11.558Z,56.25
2022-11-16T17:54:08.840Z,60.14
2022-11-16T17:56:35.648Z,59.96
2022-11-16T17:59:02.751Z,58.63
2022-11-16T18:01:32.896Z,58.82
2022-11-16T18:03:59.877Z,59.89
2022-11-16T18:06:26.662Z,58.93
2022-11-16T18:08:53.505Z,57.66
2022-11-16T18:11:23.887Z,59.69
2022-11-16T18:43:09.732Z,56.30
2022-11-16T18:45:37.146Z,57.31
2022-11-16T18:48:15.151Z,57.48
2022-11-16T18:50:58.522Z,57.62
2022-11-16T18:53:37.261Z,56.06
2022-11-16T18:59:04.672Z,53.68
2022-11-16T19:01:43.750Z,53.28
2022-11-16T19:04:31.736Z,53.79
2022-11-16T19:07:01.181Z,52.92
2022-11-16T19:09:29.153Z,53.75
2022-11-16T19:11:59.889Z,54.14
2022-11-16T19:14:43.499Z,54.01
2022-11-16T19:17:11.265Z,53.32
2022-11-16T19:19:39.168Z,52.76
2022-11-16T19:22:09.053Z,54.42
2022-11-16T19:24:45.586Z,55.73
2022-11-16T19:30:10.718Z,55.13
2022-11-16T19:32:38.867Z,55.22
2022-11-16T19:35:12.947Z,55.06
2022-11-16T19:37:42.855Z,55.05
2022-11-16T19:42:56.218Z,53.83
2022-11-16T19:45:26.138Z,54.07
2022-11-16T19:56:26.557Z,53.12
2022-11-16T19:58:55.565Z,53.45
2022-11-16T20:04:14.071Z,53.00
2022-11-16T20:06:40.764Z,51.83
2022-11-16T20:11:50.438Z,52.98
2022-11-16T20:14:17.916Z,52.15
2022-11-16T20:16:45.889Z,53.66
2022-11-16T20:19:12.777Z,53.52
2022-11-16T20:21:39.445Z,53.35
2022-11-16T20:24:07.107Z,54.96
2022-11-16T20:26:35.246Z,55.57
2022-11-16T20:29:04.911Z,57.14
2022-11-16T20:31:31.528Z,55.97
2022-11-16T20:34:03.229Z,56.07
2022-11-16T20:36:29.922Z,56.87
2022-11-16T20:41:47.141Z,55.90
2022-11-16T20:44:20.358Z,54.99
2022-11-16T20:47:05.205Z,53.76
2022-11-16T20:56:16.335Z,54.21
2022-11-16T20:58:49.291Z,55.51
2022-11-16T21:01:21.610Z,57.80
2022-11-16T21:04:10.495Z,55.47
2022-11-16T21:06:43.132Z,55.21
2022-11-16T21:15:32.009Z,55.31
2022-11-16T21:17:58.578Z,54.22
2022-11-16T21:20:27.929Z,55.03
2022-11-16T21:22:55.052Z,55.02
2022-11-16T23:41:04.631Z,53.94
2022-11-16T23:43:31.349Z,55.17
2022-11-16T23:45:59.196Z,55.77
2022-11-16T23:48:26.677Z,54.83
2022-11-16T23:50:53.679Z,55.38
2022-11-16T23:53:21.411Z,58.41
2022-11-16T23:55:48.276Z,59.08
2022-11-16T23:58:15.146Z,61.10
